Time;durP1;ratioP1;P1;durP2;ratioP2;P2;SDS_P1;SDS_P2;PMS_P1;PMS_P2;Temp;Humidity;BMP_temperature;BMP_pressure;BME280_temperature;BME280_humidity;BME280_pressure;Samples;Min_cycle;Max_cycle;Signal;HPM_P1;HPM_P2
2022/09/06 00:01:16;;;;;;;4.60;3.57;;;;;;;24.63;61.07;97685.22;5097245;28;20230;-22
2022/09/06 00:03:43;;;;;;;3.20;2.87;;;;;;;24.64;61.38;97686.97;5086572;28;20233;-22
2022/09/06 00:06:14;;;;;;;4.47;3.40;;;;;;;24.64;60.97;97680.94;5094508;28;20207;-22
2022/09/06 00:08:45;;;;;;;3.83;2.70;;;;;;;24.63;61.03;97685.22;5095029;28;20254;-22
2022/09/06 00:11:12;;;;;;;5.10;3.00;;;;;;;24.64;61.01;97712.66;5092710;28;20192;-22
2022/09/06 00:13:38;;;;;;;4.17;3.40;;;;;;;24.63;61.11;97681.78;5088127;28;20309;-22
2022/09/06 00:16:05;;;;;;;4.13;3.40;;;;;;;24.64;61.38;97693.78;5096905;28;20237;-22
2022/09/06 00:18:32;;;;;;;4.23;3.17;;;;;;;24.64;61.28;97698.94;5093365;28;20199;-22
2022/09/06 00:20:58;;;;;;;3.63;3.23;;;;;;;24.63;61.23;97695.47;5092792;28;20234;-22
2022/09/06 00:23:25;;;;;;;3.23;2.90;;;;;;;24.63;61.38;97694.66;5091352;28;20708;-22
2022/09/06 00:25:51;;;;;;;3.23;2.93;;;;;;;24.63;61.84;97692.91;5088685;28;20549;-22
2022/09/06 00:28:18;;;;;;;4.47;2.93;;;;;;;24.63;61.62;97692.06;5095156;28;20221;-22
2022/09/06 00:30:45;;;;;;;4.20;3.23;;;;;;;24.62;61.51;97691.19;5095211;28;20243;-22
2022/09/06 00:33:12;;;;;;;3.80;3.37;;;;;;;24.63;61.57;97686.94;5093161;28;20227;-22
2022/09/06 00:35:39;;;;;;;3.43;2.97;;;;;;;24.63;61.39;97698.06;5089355;28;20278;-23
2022/09/06 00:38:05;;;;;;;3.37;3.07;;;;;;;24.63;61.27;97692.91;5088718;28;20246;-22
2022/09/06 00:40:32;;;;;;;2.93;2.63;;;;;;;24.63;61.71;97694.66;5096785;28;20299;-22
2022/09/06 00:42:59;;;;;;;4.00;3.23;;;;;;;24.63;61.61;97692.06;5088987;28;20306;-24
2022/09/06 00:45:26;;;;;;;3.80;3.13;;;;;;;24.63;61.68;97694.66;5091850;28;20287;-22
2022/09/06 00:47:52;;;;;;;3.93;3.00;;;;;;;24.63;61.67;97695.47;5079206;28;20299;-22
2022/09/06 00:50:19;;;;;;;3.63;3.00;;;;;;;24.64;61.21;97688.66;5076076;28;20204;-22
2022/09/06 00:52:46;;;;;;;3.53;3.10;;;;;;;24.54;61.59;97677.31;5070542;28;20302;-22
2022/09/06 00:55:13;;;;;;;4.33;3.47;;;;;;;24.63;61.34;97698.06;5051555;28;20303;-22
2022/09/06 00:57:40;;;;;;;4.63;3.13;;;;;;;24.26;61.31;97636.50;5071673;28;20333;-22
2022/09/06 01:00:07;;;;;;;3.63;3.03;;;;;;;24.61;61.26;97701.44;5053851;28;20523;-22
2022/09/06 01:02:34;;;;;;;3.37;2.80;;;;;;;24.64;61.71;97704.06;5080796;28;20282;-22
2022/09/06 01:05:01;;;;;;;3.73;3.00;;;;;;;24.55;61.27;97688.47;5086814;28;20200;-21
2022/09/06 01:07:48;;;;;;;3.43;3.13;;;;;;;24.62;61.34;97703.16;5058302;28;20286;-22
2022/09/06 01:10:40;;;;;;;3.20;2.90;;;;;;;24.63;61.53;97704.94;5084869;28;20557;-22
2022/09/06 01:13:27;;;;;;;3.53;3.00;;;;;;;24.63;61.28;97700.63;5085622;28;20247;-22
2022/09/06 01:16:09;;;;;;;3.57;2.90;;;;;;;24.63;61.20;97708.34;5072699;28;20733;-22
2022/09/06 01:18:42;;;;;;;3.30;2.80;;;;;;;24.63;61.34;97708.34;5064051;28;20196;-22
2022/09/06 01:21:23;;;;;;;3.33;2.83;;;;;;;24.63;61.04;97704.94;5084756;28;20282;-23
2022/09/06 01:23:54;;;;;;;3.30;2.67;;;;;;;24.62;61.35;97698.91;5085159;28;20243;-23
2022/09/06 01:26:54;;;;;;;3.07;2.77;;;;;;;24.63;61.19;97707.50;5073103;28;20240;-22
2022/09/06 01:29:35;;;;;;;3.93;3.00;;;;;;;24.62;61.55;97713.44;5085908;28;20202;-22
2022/09/06 01:32:25;;;;;;;3.10;2.80;;;;;;;24.39;61.51;97664.16;5062278;28;20741;-22
2022/09/06 01:34:55;;;;;;;4.10;3.03;;;;;;;24.35;61.66;97653.78;5075483;28;20211;-22
2022/09/06 01:37:21;;;;;;;3.03;2.60;;;;;;;24.62;61.15;97705.75;5060615;28;20620;-22
2022/09/06 01:39:48;;;;;;;3.13;2.80;;;;;;;24.61;61.58;97704.88;5091431;28;20241;-22
2022/09/06 01:42:41;;;;;;;2.60;2.40;;;;;;;24.61;61.78;97704.00;5092369;28;20191;-22
2022/09/06 01:45:09;;;;;;;2.80;2.60;;;;;;;24.61;61.61;97712.59;5084836;28;20235;-22
2022/09/06 01:47:48;;;;;;;3.10;2.80;;;;;;;24.61;61.80;97706.59;5073998;28;20254;-22
2022/09/06 01:50:21;;;;;;;3.00;2.70;;;;;;;24.61;61.58;97712.59;5083985;28;20668;-22
2022/09/06 01:53:03;;;;;;;3.57;2.90;;;;;;;24.60;61.63;97708.28;5090117;28;20243;-22
2022/09/06 01:55:40;;;;;;;3.17;2.87;;;;;;;24.23;61.41;97645.84;5089914;28;20306;-22
2022/09/06 01:58:28;;;;;;;3.03;2.73;;;;;;;24.61;61.30;97712.59;5076867;28;20290;-22
2022/09/06 02:01:26;;;;;;;3.27;2.97;;;;;;;24.60;61.27;97710.00;5090156;28;20297;-22
2022/09/06 02:04:12;;;;;;;2.97;2.63;;;;;;;24.61;61.37;97712.59;5068485;28;20298;-22
2022/09/06 02:06:41;;;;;;;3.40;2.90;;;;;;;24.52;61.22;97697.00;5052990;28;20228;-22
2022/09/06 02:09:14;;;;;;;3.17;2.87;;;;;;;24.60;61.46;97708.28;5061366;28;20238;-22
2022/09/06 02:12:07;;;;;;;3.03;2.73;;;;;;;24.61;61.81;97704.00;5061863;28;20286;-22
2022/09/06 02:15:16;;;;;;;3.10;2.77;;;;;;;24.60;61.48;97699.72;5091761;28;20684;-22
2022/09/06 02:17:48;;;;;;;2.73;2.53;;;;;;;24.60;61.78;97695.44;4982795;28;20222;-22
2022/09/06 02:20:21;;;;;;;3.60;2.67;;;;;;;24.60;61.34;97692.84;5050541;28;20226;-22
2022/09/06 02:22:48;;;;;;;3.57;3.07;;;;;;;24.61;61.57;97693.72;5055597;28;20262;-22
2022/09/06 02:25:23;;;;;;;3.10;2.80;;;;;;;24.60;61.67;97703.13;5090712;28;20299;-22
2022/09/06 02:27:49;;;;;;;3.27;2.60;;;;;;;24.60;61.49;97713.41;5049694;28;20215;-22
2022/09/06 02:30:16;;;;;;;2.80;2.47;;;;;;;24.61;61.46;97704.00;5072114;28;20625;-22
2022/09/06 02:32:47;;;;;;;2.53;2.33;;;;;;;24.59;61.64;97703.97;5089737;28;20334;-22
2022/09/06 02:35:14;;;;;;;3.00;2.80;;;;;;;24.59;61.50;97706.56;5090500;28;20273;-22
2022/09/06 02:37:41;;;;;;;3.47;2.90;;;;;;;24.61;61.77;97715.16;5089671;28;20299;-22
2022/09/06 02:40:09;;;;;;;3.13;2.80;;;;;;;24.60;61.46;97710.84;5072046;28;20294;-22
2022/09/06 02:42:35;;;;;;;3.00;2.70;;;;;;;24.60;61.68;97707.44;5051895;28;20236;-22
2022/09/06 02:45:04;;;;;;;3.10;2.63;;;;;;;24.51;61.55;97691.81;5079978;28;20287;-22
2022/09/06 02:47:30;;;;;;;2.83;2.57;;;;;;;24.61;61.54;97706.59;5068752;28;20195;-22
2022/09/06 02:49:57;;;;;;;3.10;2.80;;;;;;;24.60;61.43;97700.56;5090015;28;20233;-22
2022/09/06 02:52:23;;;;;;;3.27;2.97;;;;;;;24.61;61.20;97704.00;5086101;28;20300;-22
2022/09/06 02:54:51;;;;;;;2.80;2.60;;;;;;;24.61;61.44;97706.59;5089069;28;20298;-22
2022/09/06 02:57:17;;;;;;;3.40;2.77;;;;;;;24.60;62.07;97710.00;5087377;28;20249;-22
2022/09/06 02:59:45;;;;;;;3.10;2.80;;;;;;;24.60;61.38;97710.00;5087573;28;20295;-22
2022/09/06 03:02:11;;;;;;;2.90;2.60;;;;;;;24.60;61.65;97708.28;5080772;28;20287;-22
2022/09/06 03:04:38;;;;;;;2.87;2.67;;;;;;;24.61;61.39;97693.72;5084690;28;20242;-22
2022/09/06 03:07:04;;;;;;;3.30;3.00;;;;;;;24.60;61.34;97697.16;5088265;28;20290;-22
2022/09/06 03:09:31;;;;;;;2.63;2.43;;;;;;;24.61;61.53;97691.16;5085848;28;20290;-22
2022/09/06 03:11:57;;;;;;;3.20;2.90;;;;;;;24.60;61.19;97700.56;5084390;28;20291;-22
2022/09/06 03:14:24;;;;;;;3.13;2.83;;;;;;;24.60;61.41;97697.16;5080870;28;20247;-22
2022/09/06 03:16:51;;;;;;;2.97;2.70;;;;;;;24.61;61.33;97704.00;5082485;28;20224;-22
2022/09/06 03:19:18;;;;;;;3.07;2.77;;;;;;;24.61;61.04;97704.00;5090599;28;20203;-22
2022/09/06 03:21:45;;;;;;;2.53;2.33;;;;;;;24.60;61.79;97702.28;5086334;28;20289;-22
2022/09/06 03:24:12;;;;;;;2.90;2.70;;;;;;;24.60;61.31;97700.56;5084440;28;20249;-22
2022/09/06 03:26:38;;;;;;;3.07;2.70;;;;;;;24.60;61.66;97685.16;5090777;28;20234;-22
2022/09/06 03:29:05;;;;;;;3.07;2.70;;;;;;;24.59;61.36;97685.13;5084560;28;20298;-22
2022/09/06 03:31:31;;;;;;;2.83;2.57;;;;;;;24.60;61.88;97687.72;5078536;28;20239;-22
2022/09/06 03:33:58;;;;;;;2.97;2.67;;;;;;;24.60;61.56;97692.00;5081478;28;20313;-22
2022/09/06 03:36:25;;;;;;;3.20;2.90;;;;;;;24.60;61.37;97687.72;5085367;28;20298;-22
2022/09/06 03:38:52;;;;;;;2.70;2.50;;;;;;;24.59;61.82;97691.13;5087039;28;20234;-22
2022/09/06 03:41:19;;;;;;;2.77;2.57;;;;;;;24.60;61.29;97695.44;5083613;28;20272;-23
2022/09/06 03:43:46;;;;;;;2.90;2.70;;;;;;;24.59;61.67;97698.84;5082641;28;20254;-22
2022/09/06 03:46:12;;;;;;;2.70;2.50;;;;;;;24.60;61.47;97690.28;5082069;28;20314;-23
2022/09/06 03:48:39;;;;;;;3.10;2.80;;;;;;;24.60;61.76;97690.28;5085724;28;20225;-22
2022/09/06 03:51:05;;;;;;;2.60;2.40;;;;;;;24.59;60.92;97688.56;5079895;28;20643;-22
2022/09/06 03:53:32;;;;;;;3.33;2.90;;;;;;;24.59;61.43;97688.56;5089209;28;20327;-22
2022/09/06 03:55:58;;;;;;;3.63;3.00;;;;;;;24.59;61.45;97686.00;5089237;28;20274;-22
2022/09/06 03:58:29;;;;;;;2.90;2.70;;;;;;;24.60;61.25;97689.44;5088027;28;20815;-22
2022/09/06 04:01:06;;;;;;;2.80;2.60;;;;;;;24.60;61.62;97676.59;5086911;28;20251;-22
2022/09/06 04:03:33;;;;;;;2.97;2.77;;;;;;;24.59;61.54;97688.56;5082624;28;20222;-22
2022/09/06 04:06:00;;;;;;;3.27;2.97;;;;;;;24.60;61.16;97681.72;5083515;28;20227;-22
2022/09/06 04:08:26;;;;;;;3.33;3.03;;;;;;;24.60;61.30;97685.16;5088059;28;20658;-22
2022/09/06 04:10:54;;;;;;;2.80;2.60;;;;;;;24.60;61.45;97744.25;5083786;28;20199;-22
2022/09/06 04:13:22;;;;;;;2.80;2.60;;;;;;;24.59;61.50;97696.28;5089561;28;20302;-22
2022/09/06 04:15:48;;;;;;;3.53;2.87;;;;;;;24.59;61.51;97755.38;5088102;28;20298;-22
2022/09/06 04:18:15;;;;;;;2.70;2.40;;;;;;;24.60;61.34;97686.88;5090303;28;20287;-22
2022/09/06 04:20:42;;;;;;;3.30;3.00;;;;;;;24.60;61.68;97697.16;5087574;28;20283;-22
2022/09/06 04:23:08;;;;;;;3.10;2.90;;;;;;;24.59;61.74;97701.41;5091354;28;20255;-22
2022/09/06 04:25:35;;;;;;;2.87;2.60;;;;;;;24.59;61.64;97698.84;5092541;28;20224;-22
2022/09/06 04:28:02;;;;;;;3.20;2.93;;;;;;;24.59;61.40;97688.56;5090308;28;20607;-22
2022/09/06 04:30:28;;;;;;;3.23;2.93;;;;;;;24.59;61.70;97686.00;5091276;28;20198;-22
2022/09/06 04:32:55;;;;;;;3.00;2.80;;;;;;;24.59;61.38;97688.56;5092061;28;20257;-22
2022/09/06 04:35:22;;;;;;;2.97;2.73;;;;;;;24.59;61.43;97686.00;5083157;28;20613;-22
2022/09/06 04:37:48;;;;;;;3.40;3.10;;;;;;;24.59;61.34;97682.53;5090014;28;20278;-22
2022/09/06 04:40:15;;;;;;;3.20;2.83;;;;;;;24.60;61.33;97692.84;5089784;28;20291;-22
2022/09/06 04:42:41;;;;;;;3.00;2.80;;;;;;;24.60;61.65;97689.44;5090452;28;20211;-22
2022/09/06 04:45:08;;;;;;;2.70;2.50;;;;;;;24.60;61.61;97692.84;5089011;28;20206;-22
2022/09/06 04:47:35;;;;;;;3.30;3.00;;;;;;;24.60;61.64;97687.72;5092801;28;20274;-22
2022/09/06 04:50:01;;;;;;;2.87;2.67;;;;;;;24.60;61.29;97682.56;5072703;28;20334;-22
2022/09/06 04:52:28;;;;;;;3.13;2.83;;;;;;;24.60;61.46;97680.00;5084673;28;20228;-22
2022/09/06 04:54:56;;;;;;;3.30;3.10;;;;;;;24.60;61.40;97684.31;5091468;28;20306;-22
2022/09/06 04:57:22;;;;;;;2.90;2.70;;;;;;;24.61;61.55;97693.72;5086010;28;20291;-22
2022/09/06 04:59:49;;;;;;;3.00;2.70;;;;;;;24.61;61.28;97698.88;5082564;28;20238;-22
2022/09/06 05:02:18;;;;;;;3.37;3.07;;;;;;;24.60;61.32;97697.16;5090887;28;20242;-22
2022/09/06 05:04:44;;;;;;;3.03;2.80;;;;;;;24.61;61.93;97688.59;5086897;28;20200;-22
2022/09/06 05:07:11;;;;;;;2.60;2.40;;;;;;;24.61;61.69;97694.63;5089272;28;20231;-22
2022/09/06 05:09:38;;;;;;;3.17;2.97;;;;;;;24.61;61.57;97697.19;5089060;28;20231;-22
2022/09/06 05:12:05;;;;;;;3.03;2.77;;;;;;;24.61;61.70;97698.88;5086786;28;20250;-22
2022/09/06 05:14:31;;;;;;;3.50;3.20;;;;;;;24.61;61.33;97693.72;5089860;28;20251;-22
2022/09/06 05:16:58;;;;;;;3.17;2.87;;;;;;;24.62;61.37;97698.03;5086408;28;20279;-22
2022/09/06 05:19:25;;;;;;;3.90;3.53;;;;;;;24.62;62.10;97700.59;5086445;28;20249;-22
2022/09/06 05:21:51;;;;;;;4.00;3.70;;;;;;;24.61;61.88;97702.31;5089308;28;20287;-22
2022/09/06 05:24:18;;;;;;;3.87;3.57;;;;;;;24.61;61.38;97698.88;5091552;28;20510;-22
2022/09/06 05:26:44;;;;;;;5.60;3.53;;;;;;;24.61;61.87;97706.59;5090094;28;20282;-22
2022/09/06 05:29:11;;;;;;;4.83;4.43;;;;;;;24.60;61.55;97707.44;5089090;28;20242;-22
2022/09/06 05:31:38;;;;;;;5.83;5.27;;;;;;;24.61;61.60;97704.88;5090976;28;20635;-22
2022/09/06 05:34:04;;;;;;;9.20;5.67;;;;;;;24.61;61.89;97704.88;5090665;28;20220;-22
2022/09/06 05:36:31;;;;;;;7.40;5.30;;;;;;;24.61;62.27;97704.88;5091802;28;20257;-22
2022/09/06 05:38:58;;;;;;;6.27;5.30;;;;;;;24.62;62.09;97710.88;5085194;28;20231;-23
2022/09/06 05:41:24;;;;;;;6.97;6.17;;;;;;;24.62;62.15;97716.91;5092344;28;20306;-22
2022/09/06 05:43:51;;;;;;;10.73;6.57;;;;;;;24.63;62.40;97717.78;5089194;28;20251;-22
2022/09/06 05:46:17;;;;;;;9.50;6.50;;;;;;;24.63;62.25;97721.19;5086533;28;20223;-22
2022/09/06 05:48:51;;;;;;;9.20;6.20;;;;;;;24.63;62.14;97721.19;5087723;28;20203;-22
2022/09/06 05:51:17;;;;;;;12.37;5.23;;;;;;;24.63;61.94;97723.75;5089516;28;20200;-22
2022/09/06 05:53:44;;;;;;;12.23;5.70;;;;;;;24.63;62.34;97730.63;5088611;28;20306;-22
2022/09/06 05:56:12;;;;;;;8.30;5.23;;;;;;;24.64;62.32;97737.50;5091791;28;20317;-22
2022/09/06 05:58:39;;;;;;;12.00;6.60;;;;;;;24.64;62.42;97751.22;5083231;28;20235;-22
2022/09/06 06:01:17;;;;;;;14.43;7.50;;;;;;;24.64;62.84;97755.47;5086605;28;20287;-22
2022/09/06 06:03:51;;;;;;;12.40;6.63;;;;;;;24.63;62.78;97746.03;5086117;28;20222;-22
2022/09/06 06:06:18;;;;;;;9.10;6.13;;;;;;;24.63;62.03;97751.19;5089753;28;20203;-22
2022/09/06 06:08:45;;;;;;;15.37;5.90;;;;;;;24.63;62.38;97757.16;5090715;28;20291;-22
2022/09/06 06:11:11;;;;;;;9.50;5.67;;;;;;;24.64;62.76;97758.94;5089277;28;20223;-22
2022/09/06 06:13:38;;;;;;;9.70;7.33;;;;;;;24.64;63.03;97770.91;5084709;28;20303;-23
2022/09/06 06:16:06;;;;;;;14.63;8.07;;;;;;;24.64;63.55;97768.31;5079488;28;20306;-22
2022/09/06 06:18:32;;;;;;;12.67;8.27;;;;;;;24.65;63.45;97780.38;5079706;28;20224;-22
2022/09/06 06:21:09;;;;;;;10.73;7.43;;;;;;;24.64;63.54;97769.22;5082616;28;20335;-22
2022/09/06 06:23:36;;;;;;;14.33;8.30;;;;;;;24.64;63.66;97766.63;5080479;28;20257;-22
2022/09/06 06:26:02;;;;;;;8.13;7.23;;;;;;;24.65;63.83;97773.53;5080765;28;20634;-22
2022/09/06 06:28:29;;;;;;;9.53;8.03;;;;;;;24.64;64.04;97769.22;5081119;28;20294;-22
2022/09/06 06:30:56;;;;;;;10.10;9.10;;;;;;;24.64;64.58;97791.47;5081550;28;20203;-22
2022/09/06 06:33:23;;;;;;;11.47;9.30;;;;;;;24.64;65.23;97763.19;5083021;28;20645;-22
2022/09/06 06:35:59;;;;;;;10.60;9.70;;;;;;;24.64;65.16;97766.63;5083114;28;20765;-22
2022/09/06 06:38:36;;;;;;;11.73;10.53;;;;;;;24.63;65.25;97753.75;5083903;28;20643;-22
2022/09/06 06:41:04;;;;;;;12.40;10.80;;;;;;;24.64;65.94;97765.75;5082921;28;20238;-22
2022/09/06 06:43:36;;;;;;;10.60;9.60;;;;;;;24.65;66.06;97764.94;5082297;28;20288;-22
2022/09/06 06:46:07;;;;;;;11.43;10.40;;;;;;;24.64;65.75;97755.47;5082656;28;20227;-22
2022/09/06 06:48:35;;;;;;;11.07;9.97;;;;;;;24.63;66.50;97736.59;5082379;28;20199;-22
2022/09/06 06:51:01;;;;;;;10.67;9.67;;;;;;;24.64;65.72;97745.19;5082783;28;20231;-22
2022/09/06 06:53:28;;;;;;;10.03;9.10;;;;;;;24.63;64.83;97743.47;5082994;28;20774;-22
2022/09/06 06:55:54;;;;;;;11.17;9.40;;;;;;;24.62;64.68;97749.44;5081971;28;20222;-22
2022/09/06 06:58:21;;;;;;;9.57;7.97;;;;;;;24.62;64.21;97734.00;5080742;28;20623;-22
2022/09/06 07:00:48;;;;;;;8.20;7.40;;;;;;;24.61;64.03;97725.44;5082168;28;20226;-23
2022/09/06 07:03:15;;;;;;;9.67;8.77;;;;;;;24.61;64.88;97717.75;5079005;28;20848;-22
2022/09/06 07:05:42;;;;;;;8.73;7.93;;;;;;;24.63;64.23;97722.91;5078496;28;20314;-22
2022/09/06 07:08:28;;;;;;;8.63;7.83;;;;;;;24.62;64.17;97718.59;5079897;28;20829;-22
2022/09/06 07:10:55;;;;;;;8.57;7.87;;;;;;;24.62;63.67;97731.44;5081430;28;20286;-22
2022/09/06 07:13:21;;;;;;;8.60;7.80;;;;;;;24.62;63.92;97734.00;5080071;28;20625;-21
2022/09/06 07:15:48;;;;;;;8.87;7.90;;;;;;;24.63;64.11;97730.63;5080837;28;20223;-22
2022/09/06 07:18:15;;;;;;;8.50;7.70;;;;;;;24.61;63.52;97724.56;5080365;28;20199;-22
2022/09/06 07:20:41;;;;;;;7.90;7.20;;;;;;;22.82;63.34;97444.28;5081854;28;20299;-22
2022/09/06 07:23:28;;;;;;;7.97;7.17;;;;;;;24.62;63.26;97731.44;5081580;28;20599;-22
2022/09/06 07:26:16;;;;;;;8.00;7.33;;;;;;;24.62;63.16;97731.44;5080165;28;20703;-22
2022/09/06 07:28:43;;;;;;;7.90;7.20;;;;;;;24.63;63.75;97728.91;5082098;28;20639;-22
2022/09/06 07:31:09;;;;;;;8.67;7.47;;;;;;;24.63;63.15;97730.63;5081692;28;20199;-22
2022/09/06 07:33:56;;;;;;;7.70;7.00;;;;;;;24.63;63.58;97738.34;5080620;28;20683;-22
2022/09/06 07:36:22;;;;;;;7.90;7.10;;;;;;;24.62;63.34;97765.72;5043731;28;20247;-22
2022/09/06 07:38:49;;;;;;;7.90;7.20;;;;;;;24.63;63.28;97738.34;5081273;28;20299;-22
2022/09/06 07:41:16;;;;;;;7.30;6.60;;;;;;;24.63;63.40;97734.03;5080950;28;20223;-22
2022/09/06 07:43:43;;;;;;;7.43;6.73;;;;;;;24.63;63.42;97736.59;5080760;28;20556;-22
2022/09/06 07:46:14;;;;;;;8.47;7.67;;;;;;;24.64;63.03;97755.47;5082289;28;20825;-22
2022/09/06 07:48:41;;;;;;;7.40;6.63;;;;;;;24.63;63.40;97736.59;5081172;28;20566;-22
2022/09/06 07:51:16;;;;;;;8.50;7.67;;;;;;;24.64;62.80;97722.06;5080800;28;20282;-22
2022/09/06 07:53:44;;;;;;;7.20;6.50;;;;;;;24.64;63.27;97742.63;5080347;28;20269;-22
2022/09/06 07:56:11;;;;;;;6.83;6.23;;;;;;;24.64;62.89;97734.91;5068726;28;20322;-22
2022/09/06 07:58:38;;;;;;;7.13;6.53;;;;;;;24.64;63.05;97729.78;5083387;28;20215;-22
2022/09/06 08:01:15;;;;;;;7.00;6.40;;;;;;;24.63;62.69;97731.47;5084398;28;20641;-22
2022/09/06 08:03:42;;;;;;;7.50;6.80;;;;;;;24.64;62.79;97745.19;5086063;28;20645;-22
2022/09/06 08:06:09;;;;;;;7.00;6.40;;;;;;;24.63;63.17;97731.47;5085602;28;20219;-22
2022/09/06 08:08:36;;;;;;;7.13;6.47;;;;;;;24.63;63.29;97741.75;5083104;28;20343;-22
2022/09/06 08:11:25;;;;;;;6.87;6.27;;;;;;;24.64;63.53;97753.78;5079741;28;20200;-22
2022/09/06 08:13:53;;;;;;;7.33;6.33;;;;;;;24.64;63.50;97750.34;5080021;28;20378;-22
2022/09/06 08:16:20;;;;;;;9.23;6.20;;;;;;;22.76;63.30;97431.31;5081936;28;20284;-22
2022/09/06 08:18:57;;;;;;;6.90;6.30;;;;;;;24.63;63.11;97749.47;5083425;28;20199;-22
2022/09/06 08:21:25;;;;;;;6.60;6.00;;;;;;;24.65;63.33;97749.53;5082547;28;20721;-23
2022/09/06 08:23:55;;;;;;;7.93;6.47;;;;;;;24.64;63.06;97743.50;5084555;28;20215;-22
2022/09/06 08:26:22;;;;;;;7.63;6.77;;;;;;;24.64;63.25;97735.78;5082598;28;20282;-22
2022/09/06 08:28:57;;;;;;;6.97;6.30;;;;;;;24.65;63.19;97734.97;5082051;28;20330;-23
2022/09/06 08:31:23;;;;;;;6.93;6.33;;;;;;;24.66;63.11;97735.84;5066986;28;20297;-22
2022/09/06 08:33:50;;;;;;;7.00;6.27;;;;;;;24.67;63.36;97735.00;5082975;28;20590;-22
2022/09/06 08:36:16;;;;;;;6.97;6.27;;;;;;;24.66;63.20;97730.72;5081300;28;20697;-22
2022/09/06 08:38:44;;;;;;;7.73;6.00;;;;;;;24.66;63.44;97723.84;5082686;28;20291;-22
2022/09/06 08:41:16;;;;;;;6.97;6.27;;;;;;;24.66;63.38;97726.44;5084333;28;20689;-23
2022/09/06 08:44:09;;;;;;;6.57;5.83;;;;;;;24.66;62.97;97723.84;5082043;28;20545;-22
2022/09/06 08:47:06;;;;;;;6.70;6.10;;;;;;;24.67;63.24;97714.44;5066224;28;20195;-22
2022/09/06 08:49:46;;;;;;;6.67;6.03;;;;;;;24.67;62.81;97710.19;5083348;28;20298;-22
2022/09/06 08:52:27;;;;;;;6.57;5.97;;;;;;;24.67;62.88;97712.75;5082634;28;20330;-22
2022/09/06 08:55:15;;;;;;;6.50;5.90;;;;;;;24.67;63.29;97717.03;5065462;28;20298;-22
2022/09/06 08:58:00;;;;;;;6.80;6.10;;;;;;;24.68;63.02;97717.06;5083519;28;20227;-22
2022/09/06 09:00:27;;;;;;;6.83;6.23;;;;;;;24.68;63.78;97713.59;5082358;28;20302;-22
2022/09/06 09:03:20;;;;;;;6.57;6.00;;;;;;;24.61;63.52;97696.31;5063332;28;20310;-22
2022/09/06 09:05:48;;;;;;;6.33;5.67;;;;;;;24.68;63.27;97711.91;5052583;28;20234;-22
2022/09/06 09:08:23;;;;;;;7.03;5.80;;;;;;;24.67;63.40;97706.75;5081524;28;20287;-22
2022/09/06 09:11:04;;;;;;;6.73;5.60;;;;;;;24.69;63.34;97707.66;5082037;28;20238;-22
2022/09/06 09:13:37;;;;;;;6.13;5.53;;;;;;;24.68;62.94;97704.19;5065807;28;20223;-22
2022/09/06 09:16:04;;;;;;;6.20;5.53;;;;;;;24.68;63.00;97693.91;5082317;28;20793;-22
2022/09/06 09:18:37;;;;;;;5.83;5.23;;;;;;;24.69;62.87;97694.78;5067064;28;20226;-22
2022/09/06 09:21:03;;;;;;;6.53;5.70;;;;;;;24.70;63.15;97719.66;5069609;28;20634;-22
2022/09/06 09:23:30;;;;;;;8.33;5.50;;;;;;;24.68;62.86;97698.19;5081591;28;20314;-22
2022/09/06 09:26:03;;;;;;;6.67;5.40;;;;;;;24.61;63.33;97688.59;5080594;28;20797;-22
2022/09/06 09:28:30;;;;;;;6.07;5.23;;;;;;;24.70;63.14;97701.66;5067212;28;20219;-22
2022/09/06 09:30:56;;;;;;;5.63;5.10;;;;;;;24.71;63.13;97711.09;5082583;28;20287;-22
2022/09/06 09:33:32;;;;;;;6.07;5.50;;;;;;;24.71;63.18;97713.66;5081997;28;20311;-22
2022/09/06 09:36:00;;;;;;;5.60;5.10;;;;;;;24.71;63.17;97703.38;5080645;28;20326;-22
2022/09/06 09:38:31;;;;;;;8.73;5.53;;;;;;;24.43;63.45;97652.25;5082764;28;20294;-23
2022/09/06 09:41:02;;;;;;;5.33;4.83;;;;;;;22.69;63.21;97347.50;5066477;28;20302;-22
2022/09/06 09:43:30;;;;;;;6.17;5.53;;;;;;;24.70;63.82;97694.81;5062227;28;20323;-22
2022/09/06 09:46:21;;;;;;;7.27;5.10;;;;;;;24.70;63.50;97689.69;5081085;28;20199;-22
2022/09/06 09:49:06;;;;;;;7.73;5.50;;;;;;;24.71;63.46;97690.53;5081655;28;20752;-22
2022/09/06 09:51:43;;;;;;;5.40;4.90;;;;;;;24.71;64.01;97680.25;5082972;28;20282;-22
2022/09/06 09:54:11;;;;;;;5.33;4.83;;;;;;;24.71;63.75;97683.69;5069665;28;20796;-22
2022/09/06 09:56:39;;;;;;;5.97;5.37;;;;;;;24.72;63.91;97677.72;5082022;28;20238;-22
2022/09/06 09:59:14;;;;;;;6.87;5.30;;;;;;;24.48;63.54;97637.81;5082516;28;20641;-22
2022/09/06 10:01:41;;;;;;;6.80;5.23;;;;;;;24.71;63.85;97673.41;5053768;28;20290;-22
2022/09/06 10:07:18;;;;;;;11.80;5.43;;;;;;;24.72;63.54;97671.72;4983958;28;20250;-31
2022/09/06 10:10:00;;;;;;;5.07;4.57;;;;;;;24.72;63.48;97667.44;4986435;28;20907;-30
2022/09/06 10:12:40;;;;;;;5.90;5.00;;;;;;;24.73;63.36;97674.31;4986493;28;20230;-31
2022/09/06 10:15:08;;;;;;;7.10;5.10;;;;;;;24.72;63.41;97670.00;4991553;28;20608;-31
2022/09/06 10:17:47;;;;;;;7.40;5.20;;;;;;;24.71;63.49;97658.00;5002543;28;20657;-30
2022/09/06 10:20:15;;;;;;;5.30;4.80;;;;;;;24.73;63.77;97669.19;5018837;28;20309;-31
2022/09/06 10:23:03;;;;;;;6.07;4.87;;;;;;;24.74;63.35;97673.47;5003111;28;20297;-31
2022/09/06 10:25:44;;;;;;;5.00;4.50;;;;;;;24.75;63.69;97672.63;5001107;28;20265;-31
2022/09/06 10:28:21;;;;;;;5.27;4.70;;;;;;;24.74;63.33;97665.75;5003771;28;20225;-32
2022/09/06 10:31:09;;;;;;;4.90;4.50;;;;;;;24.75;63.43;97664.06;5001604;28;20304;-31
2022/09/06 10:33:52;;;;;;;5.13;4.60;;;;;;;24.74;63.44;97660.63;4997654;28;20732;-31
2022/09/06 10:36:20;;;;;;;5.43;4.90;;;;;;;24.74;63.85;97663.19;4992593;28;20230;-33
2022/09/06 10:38:53;;;;;;;5.43;4.80;;;;;;;24.75;63.27;97662.34;4991701;28;20229;-31
2022/09/06 10:41:41;;;;;;;5.33;4.83;;;;;;;24.19;63.46;97560.16;5001022;28;20298;-31
2022/09/06 10:44:20;;;;;;;6.73;4.53;;;;;;;24.75;63.77;97656.34;5005358;28;20206;-31
2022/09/06 10:46:47;;;;;;;6.10;5.37;;;;;;;24.75;63.39;97652.06;5007542;28;20640;-31
2022/09/06 10:49:17;;;;;;;5.00;4.47;;;;;;;24.75;63.36;97654.63;5008374;28;20636;-31
2022/09/06 10:51:50;;;;;;;4.80;4.33;;;;;;;24.76;63.83;97650.38;5024259;28;20230;-31
2022/09/06 10:54:22;;;;;;;4.60;4.10;;;;;;;24.75;63.57;97640.94;5008570;28;20293;-31
2022/09/06 10:56:57;;;;;;;5.17;4.77;;;;;;;24.71;63.60;97640.00;5008484;28;20249;-32
2022/09/06 10:59:28;;;;;;;7.93;4.40;;;;;;;24.75;63.40;97638.38;5023880;28;20530;-32
2022/09/06 11:02:25;;;;;;;5.50;4.33;;;;;;;24.74;63.29;97637.50;5019109;28;20237;-31
2022/09/06 11:04:52;;;;;;;4.70;4.00;;;;;;;24.74;63.36;97634.03;5010766;28;20233;-31
2022/09/06 11:07:43;;;;;;;4.70;4.20;;;;;;;24.72;63.13;97639.16;5029067;28;20553;-31
2022/09/06 11:10:42;;;;;;;4.73;4.17;;;;;;;24.75;63.14;97640.94;5024379;28;20198;-31
2022/09/06 11:13:16;;;;;;;5.10;4.50;;;;;;;24.67;63.20;97627.94;5008569;28;20237;-31
2022/09/06 11:15:56;;;;;;;5.00;4.50;;;;;;;24.76;63.48;97630.69;5009077;28;20253;-30
2022/09/06 11:18:31;;;;;;;4.90;4.43;;;;;;;24.76;63.72;97629.81;5011328;28;20203;-31
2022/09/06 11:21:29;;;;;;;4.70;4.30;;;;;;;24.76;63.46;97622.97;5028184;28;20224;-32
2022/09/06 11:24:27;;;;;;;6.60;4.20;;;;;;;24.76;63.23;97620.41;5009168;28;20304;-31
2022/09/06 11:27:10;;;;;;;4.50;4.10;;;;;;;24.76;63.33;97611.81;5028413;28;20273;-31
2022/09/06 11:29:39;;;;;;;5.73;4.40;;;;;;;24.77;63.17;97613.53;5011049;28;20232;-31
2022/09/06 11:32:33;;;;;;;4.60;4.20;;;;;;;24.76;63.22;97607.53;5007067;28;20234;-31
2022/09/06 11:35:03;;;;;;;4.37;4.00;;;;;;;24.76;63.20;97604.97;5011398;28;20341;-32
2022/09/06 11:37:32;;;;;;;4.67;4.27;;;;;;;24.76;63.55;97602.41;5013345;28;20249;-30
2022/09/06 11:40:21;;;;;;;4.57;4.00;;;;;;;24.22;63.58;97508.84;5026687;28;20236;-30
2022/09/06 11:42:53;;;;;;;4.83;4.13;;;;;;;24.76;63.34;97599.84;5026373;28;20206;-31
2022/09/06 11:45:37;;;;;;;4.50;4.10;;;;;;;24.65;63.58;97575.63;5028182;28;20266;-31
2022/09/06 11:48:22;;;;;;;4.63;4.23;;;;;;;24.75;63.63;97590.38;5004039;28;20239;-31
2022/09/06 11:50:57;;;;;;;4.37;3.97;;;;;;;24.77;63.63;97585.25;5023872;28;20284;-31
2022/09/06 11:53:25;;;;;;;6.50;4.00;;;;;;;24.77;63.25;97587.81;5028514;28;20197;-31
2022/09/06 11:55:58;;;;;;;4.73;3.93;;;;;;;24.77;63.43;97585.25;4993296;28;20340;-32